Time;durP1;ratioP1;P1;durP2;ratioP2;P2;SDS_P1;SDS_P2;PMS_P1;PMS_P2;Temp;Humidity;BMP_temperature;BMP_pressure;BME280_temperature;BME280_humidity;BME280_pressure;Samples;Min_cycle;Max_cycle;Signal;HPM_P1;HPM_P2
2023/01/01 00:01:10;;;;;;;3.17;1.48;;;15.70;99.90;;;;;;4424038;32;20403;-66
2023/01/01 00:03:36;;;;;;;3.78;2.12;;;15.60;99.90;;;;;;4408376;32;20070;-66
2023/01/01 00:06:06;;;;;;;1.50;1.12;;;15.60;99.90;;;;;;4421734;32;20223;-66
2023/01/01 00:08:31;;;;;;;6.53;1.73;;;15.70;99.90;;;;;;4419584;32;20172;-66
2023/01/01 00:11:01;;;;;;;1.12;1.08;;;15.60;99.90;;;;;;4411235;32;20528;-65
2023/01/01 00:13:26;;;;;;;3.33;0.90;;;15.60;99.90;;;;;;4406596;32;20639;-66
2023/01/01 00:15:52;;;;;;;3.30;1.58;;;15.70;99.90;;;;;;4416669;32;20057;-66
2023/01/01 00:18:17;;;;;;;2.42;1.77;;;15.70;99.90;;;;;;4419930;32;20097;-66
2023/01/01 00:20:43;;;;;;;0.73;0.73;;;15.70;99.90;;;;;;4420867;32;20077;-66
2023/01/01 00:23:08;;;;;;;2.05;1.45;;;15.70;99.90;;;;;;4421806;32;20721;-65
2023/01/01 00:25:34;;;;;;;1.27;1.12;;;15.70;99.90;;;;;;4422652;32;20089;-66
2023/01/01 00:28:00;;;;;;;1.05;0.98;;;15.70;99.90;;;;;;4419560;32;20105;-66
2023/01/01 00:30:25;;;;;;;5.03;0.70;;;15.70;99.90;;;;;;4420591;32;20137;-65
2023/01/01 00:32:51;;;;;;;1.37;0.55;;;15.60;99.90;;;;;;4421093;32;20064;-66
2023/01/01 00:35:17;;;;;;;0.68;0.68;;;15.60;99.90;;;;;;4419784;32;20135;-66
2023/01/01 00:37:43;;;;;;;1.08;0.80;;;15.60;99.90;;;;;;4425034;32;20608;-66
2023/01/01 00:40:09;;;;;;;1.48;1.05;;;15.60;99.90;;;;;;4418263;32;20077;-65
2023/01/01 00:42:38;;;;;;;0.55;0.55;;;15.70;99.90;;;;;;4406128;32;20061;-66
2023/01/01 00:45:05;;;;;;;0.50;0.50;;;15.60;99.90;;;;;;4412971;32;20073;-66
2023/01/01 00:47:30;;;;;;;0.75;0.70;;;15.60;99.90;;;;;;4420449;32;20604;-66
2023/01/01 00:49:56;;;;;;;2.00;0.75;;;15.60;99.90;;;;;;4422060;32;20127;-66
2023/01/01 00:52:21;;;;;;;0.57;0.55;;;15.50;99.90;;;;;;4421420;32;20533;-66
2023/01/01 00:54:47;;;;;;;2.08;1.27;;;15.60;99.90;;;;;;4422205;32;20372;-66
2023/01/01 00:57:12;;;;;;;1.85;0.90;;;15.60;99.90;;;;;;4421201;32;20501;-66
2023/01/01 00:59:38;;;;;;;0.73;0.73;;;15.60;99.90;;;;;;4422510;32;20068;-66
2023/01/01 01:02:03;;;;;;;2.05;0.70;;;15.60;99.90;;;;;;4422863;32;20085;-65
2023/01/01 01:04:29;;;;;;;0.80;0.80;;;15.60;99.90;;;;;;4421056;32;20157;-66
2023/01/01 01:06:54;;;;;;;0.40;0.40;;;15.60;99.90;;;;;;4421273;32;20065;-66
2023/01/01 01:09:20;;;;;;;5.05;1.95;;;15.50;99.90;;;;;;4419944;32;20174;-64
2023/01/01 01:11:45;;;;;;;0.60;0.60;;;15.50;99.90;;;;;;4406566;32;20069;-66
2023/01/01 01:14:10;;;;;;;0.40;0.40;;;15.50;99.90;;;;;;4407811;32;20161;-65
2023/01/01 01:16:36;;;;;;;0.40;0.40;;;15.50;99.90;;;;;;4418654;32;20161;-65
2023/01/01 01:19:04;;;;;;;0.52;0.52;;;15.50;99.90;;;;;;4422650;32;20081;-66
2023/01/01 01:21:32;;;;;;;6.97;2.70;;;15.60;99.90;;;;;;4420950;32;20347;-66
2023/01/01 01:23:59;;;;;;;0.40;0.40;;;15.60;99.90;;;;;;4397950;32;20093;-66
2023/01/01 01:26:28;;;;;;;1.17;0.77;;;15.50;99.90;;;;;;4425642;32;20347;-66
2023/01/01 01:28:53;;;;;;;0.60;0.60;;;15.60;99.90;;;;;;4423089;32;20076;-66
2023/01/01 01:31:20;;;;;;;10.43;1.90;;;15.60;99.90;;;;;;4426381;32;20099;-66
2023/01/01 01:33:47;;;;;;;0.50;0.50;;;15.60;99.90;;;;;;4410370;32;20105;-65
2023/01/01 01:36:14;;;;;;;0.70;0.70;;;15.50;99.90;;;;;;4410980;32;20130;-66
2023/01/01 01:38:40;;;;;;;0.57;0.57;;;15.60;99.90;;;;;;4407747;32;20081;-66
2023/01/01 01:41:07;;;;;;;0.50;0.50;;;15.60;99.90;;;;;;4398065;32;20152;-65
2023/01/01 01:43:34;;;;;;;0.45;0.45;;;15.60;99.90;;;;;;4394510;32;20102;-65
2023/01/01 01:46:11;;;;;;;0.50;0.50;;;15.60;99.90;;;;;;4419967;32;20082;-66
2023/01/01 01:48:41;;;;;;;0.77;0.77;;;15.50;99.90;;;;;;4424017;32;20086;-66
2023/01/01 01:51:08;;;;;;;0.45;0.45;;;15.60;99.90;;;;;;4410953;32;20148;-66
2023/01/01 01:53:39;;;;;;;0.70;0.70;;;15.60;99.90;;;;;;4422274;32;20074;-66
2023/01/01 01:56:11;;;;;;;0.50;0.50;;;15.50;99.90;;;;;;4421472;32;20081;-66
2023/01/01 01:58:37;;;;;;;0.65;0.65;;;15.60;99.90;;;;;;4423162;32;20086;-66
2023/01/01 02:01:03;;;;;;;0.75;0.75;;;15.60;99.90;;;;;;4423897;32;20061;-66
2023/01/01 02:03:52;;;;;;;0.70;0.70;;;15.50;99.90;;;;;;4422589;32;20112;-66
2023/01/01 02:06:18;;;;;;;1.15;0.70;;;15.50;99.90;;;;;;4410291;32;20093;-66
2023/01/01 02:08:44;;;;;;;12.15;0.82;;;15.50;99.90;;;;;;4422716;32;20058;-66
2023/01/01 02:11:10;;;;;;;0.77;0.77;;;15.50;99.90;;;;;;4410410;32;20053;-65
2023/01/01 02:13:36;;;;;;;12.95;1.02;;;15.50;99.90;;;;;;4408912;32;20210;-65
2023/01/01 02:16:18;;;;;;;0.90;0.85;;;15.50;99.90;;;;;;4404942;32;20089;-65
2023/01/01 02:18:59;;;;;;;2.08;1.45;;;15.60;99.90;;;;;;4409011;32;20137;-66
2023/01/01 02:21:39;;;;;;;0.77;0.77;;;15.50;99.90;;;;;;4423406;32;20088;-65
2023/01/01 02:24:32;;;;;;;0.55;0.52;;;15.50;99.90;;;;;;4425713;32;20521;-65
2023/01/01 02:27:08;;;;;;;0.85;0.85;;;15.50;99.90;;;;;;4411915;32;20105;-65
2023/01/01 02:29:57;;;;;;;0.77;0.77;;;15.50;99.90;;;;;;4421237;32;20077;-65
2023/01/01 02:32:30;;;;;;;0.47;0.47;;;15.50;99.90;;;;;;4410063;32;20093;-65
2023/01/01 02:35:33;;;;;;;0.50;0.50;;;15.50;99.90;;;;;;4421708;32;20537;-65
2023/01/01 02:37:53;;;;;;;1.33;1.23;;;15.40;99.90;;;;;;4411703;32;20616;-65
2023/01/01 02:40:21;;;;;;;36.22;5.12;;;15.40;99.90;;;;;;4417675;32;20093;-65
2023/01/01 02:42:47;;;;;;;0.85;0.85;;;15.30;99.90;;;;;;4407390;32;20339;-67
2023/01/01 02:45:13;;;;;;;0.80;0.80;;;15.30;99.90;;;;;;4415578;32;20146;-67
2023/01/01 02:47:38;;;;;;;0.68;0.68;;;15.30;99.90;;;;;;4420852;32;20065;-67
2023/01/01 02:50:21;;;;;;;2.22;1.17;;;15.40;99.90;;;;;;4421713;32;20120;-67
2023/01/01 02:53:11;;;;;;;0.65;0.65;;;15.40;99.90;;;;;;4424145;32;20077;-65
2023/01/01 02:56:06;;;;;;;0.90;0.90;;;15.40;99.90;;;;;;4421511;32;20093;-65
2023/01/01 03:00:40;;;;;;;2.30;1.58;;;15.30;99.90;;;;;;4410458;32;20089;-65
2023/01/01 03:01:46;;;;;;;9.38;2.15;;;15.30;99.90;;;;;;4411203;32;20097;-67
2023/01/01 03:04:15;;;;;;;0.93;0.93;;;15.30;99.90;;;;;;4408525;32;20106;-67
2023/01/01 03:07:10;;;;;;;3.00;1.30;;;15.40;99.90;;;;;;4423660;32;20086;-65
2023/01/01 03:09:55;;;;;;;0.60;0.60;;;15.40;99.90;;;;;;4410827;32;20127;-64
2023/01/01 03:12:38;;;;;;;1.12;0.80;;;15.30;99.90;;;;;;4409138;32;20592;-66
2023/01/01 03:15:26;;;;;;;0.68;0.68;;;15.40;99.90;;;;;;4414275;32;20161;-66
2023/01/01 03:18:17;;;;;;;2.65;0.80;;;15.40;99.90;;;;;;4409086;32;20070;-66
2023/01/01 03:20:44;;;;;;;;;;;15.30;99.90;;;;;;4398093;32;20105;-67
2023/01/01 03:23:15;;;;;;;0.80;0.75;;;15.30;99.90;;;;;;4422581;32;19984;-66
2023/01/01 03:25:46;;;;;;;0.80;0.80;;;15.30;99.90;;;;;;4420916;32;20085;-67
2023/01/01 03:28:16;;;;;;;0.57;0.57;;;15.30;99.90;;;;;;4422209;32;20082;-66
2023/01/01 03:30:44;;;;;;;4.93;2.45;;;15.30;99.90;;;;;;4423496;32;20077;-66
2023/01/01 03:33:17;;;;;;;1.23;1.12;;;15.30;99.90;;;;;;4421636;32;20074;-66
2023/01/01 03:35:53;;;;;;;0.57;0.57;;;15.30;99.90;;;;;;4406926;32;20127;-66
2023/01/01 03:38:24;;;;;;;3.30;1.70;;;15.30;99.90;;;;;;4407316;32;20049;-66
2023/01/01 03:40:55;;;;;;;0.68;0.60;;;15.30;99.90;;;;;;4397316;32;20183;-66
2023/01/01 03:43:49;;;;;;;2.37;1.48;;;15.20;99.90;;;;;;4408043;32;20085;-66
2023/01/01 03:46:18;;;;;;;0.88;0.88;;;15.30;99.90;;;;;;4400383;32;21279;-66
2023/01/01 03:48:59;;;;;;;2.37;1.40;;;15.20;99.90;;;;;;4421973;32;20091;-66
2023/01/01 03:51:39;;;;;;;0.75;0.70;;;15.20;99.90;;;;;;4422433;32;20421;-66
2023/01/01 03:54:11;;;;;;;3.25;1.20;;;15.10;99.90;;;;;;4420778;32;20250;-66
2023/01/01 03:56:44;;;;;;;1.37;1.27;;;15.10;99.90;;;;;;4419898;32;20535;-66
2023/01/01 03:59:18;;;;;;;3.45;1.92;;;15.00;99.90;;;;;;4408293;32;20544;-66
2023/01/01 04:01:50;;;;;;;4.75;1.73;;;15.00;99.90;;;;;;4422953;32;20053;-67
2023/01/01 04:04:16;;;;;;;2.58;1.83;;;15.00;99.90;;;;;;4421595;32;20061;-66
2023/01/01 04:06:41;;;;;;;2.47;1.05;;;15.00;99.90;;;;;;4421981;32;20135;-66
2023/01/01 04:09:14;;;;;;;0.90;0.90;;;15.00;99.90;;;;;;4421146;32;20493;-65
2023/01/01 04:12:14;;;;;;;3.20;1.40;;;15.00;99.90;;;;;;4408984;32;20097;-66
2023/01/01 04:14:30;;;;;;;0.65;0.65;;;15.00;99.90;;;;;;4393283;32;20723;-65
2023/01/01 04:16:56;;;;;;;3.65;0.95;;;15.00;99.90;;;;;;4423121;32;20081;-66
2023/01/01 04:19:22;;;;;;;0.95;0.90;;;15.00;99.90;;;;;;4421952;32;20069;-66
2023/01/01 04:21:47;;;;;;;0.82;0.62;;;15.00;99.90;;;;;;4421974;32;20097;-66
2023/01/01 04:24:13;;;;;;;1.48;0.70;;;14.90;99.90;;;;;;4421179;32;20084;-65
2023/01/01 04:26:39;;;;;;;0.55;0.55;;;14.80;99.90;;;;;;4421394;32;20110;-66
2023/01/01 04:29:05;;;;;;;0.98;0.90;;;14.80;99.90;;;;;;4406941;32;20058;-66
2023/01/01 04:31:30;;;;;;;1.75;1.12;;;14.70;99.90;;;;;;4407064;32;20120;-66
2023/01/01 04:33:56;;;;;;;1.00;1.00;;;14.70;99.90;;;;;;4421522;32;20978;-66
2023/01/01 04:36:21;;;;;;;0.93;0.55;;;14.70;99.90;;;;;;4420542;32;20517;-66
2023/01/01 04:38:47;;;;;;;0.55;0.55;;;14.60;99.90;;;;;;4421677;32;20545;-66
2023/01/01 04:41:12;;;;;;;0.95;0.90;;;14.60;99.90;;;;;;4408842;32;20057;-65
2023/01/01 04:43:38;;;;;;;1.20;0.60;;;14.70;99.90;;;;;;4408942;32;20533;-65
2023/01/01 04:46:03;;;;;;;0.90;0.90;;;14.60;99.90;;;;;;4416654;32;20073;-65
2023/01/01 04:48:30;;;;;;;0.68;0.68;;;14.70;99.90;;;;;;4420324;32;20190;-66
2023/01/01 04:50:57;;;;;;;0.70;0.70;;;14.60;99.90;;;;;;4407918;32;20073;-65
2023/01/01 04:53:23;;;;;;;0.62;0.62;;;14.60;99.90;;;;;;4421284;32;20073;-66
2023/01/01 04:55:48;;;;;;;4.28;1.90;;;14.60;99.90;;;;;;4422288;32;20125;-66
2023/01/01 04:58:14;;;;;;;4.03;0.90;;;14.60;99.90;;;;;;4420188;32;20085;-66
2023/01/01 05:00:39;;;;;;;0.57;0.57;;;14.60;99.90;;;;;;4424033;32;20624;-65
2023/01/01 05:03:05;;;;;;;1.98;1.15;;;14.60;99.90;;;;;;4423336;32;20121;-66
2023/01/01 05:05:30;;;;;;;1.10;1.02;;;14.60;99.90;;;;;;4424033;32;20489;-66
2023/01/01 05:07:55;;;;;;;3.45;1.25;;;14.50;99.90;;;;;;4423606;32;20217;-65
2023/01/01 05:10:21;;;;;;;2.33;0.70;;;14.60;99.90;;;;;;4418272;32;20145;-65
2023/01/01 05:12:46;;;;;;;0.85;0.60;;;14.50;99.90;;;;;;4410955;32;20097;-65
2023/01/01 05:15:12;;;;;;;2.62;0.60;;;14.60;99.90;;;;;;4416766;32;20066;-65
2023/01/01 05:17:37;;;;;;;1.98;0.95;;;14.60;99.90;;;;;;4425283;32;20069;-66
2023/01/01 05:20:03;;;;;;;0.73;0.73;;;14.60;99.90;;;;;;4424771;32;20088;-66
2023/01/01 05:22:29;;;;;;;0.73;0.73;;;14.60;99.90;;;;;;4426564;32;20570;-66
2023/01/01 05:24:54;;;;;;;0.60;0.60;;;14.60;99.90;;;;;;4424358;32;20081;-65
2023/01/01 05:27:20;;;;;;;0.90;0.85;;;14.50;99.90;;;;;;4425249;32;20089;-65
2023/01/01 05:29:45;;;;;;;5.18;1.05;;;14.50;99.90;;;;;;4423342;32;20091;-66
2023/01/01 05:32:11;;;;;;;0.40;0.40;;;14.50;99.90;;;;;;4423800;32;20494;-65
2023/01/01 05:34:36;;;;;;;2.05;1.10;;;14.50;99.90;;;;;;4423533;32;20065;-65
2023/01/01 05:37:02;;;;;;;0.73;0.73;;;14.50;99.90;;;;;;4424497;32;20073;-66
2023/01/01 05:39:27;;;;;;;3.55;0.70;;;14.60;99.90;;;;;;4424324;32;20082;-65
2023/01/01 05:41:53;;;;;;;0.75;0.75;;;14.60;99.90;;;;;;4408466;32;20423;-65
2023/01/01 05:44:18;;;;;;;0.73;0.68;;;14.60;99.90;;;;;;4413614;32;20197;-65
2023/01/01 05:46:44;;;;;;;4.80;1.45;;;14.60;99.90;;;;;;4422505;32;20077;-65
2023/01/01 05:49:10;;;;;;;0.40;0.40;;;14.60;99.90;;;;;;4419869;32;20074;-65
2023/01/01 05:51:36;;;;;;;4.12;2.05;;;14.60;99.90;;;;;;4423175;32;20194;-66
2023/01/01 05:54:02;;;;;;;1.48;1.12;;;14.60;99.90;;;;;;4406406;32;20528;-66
2023/01/01 05:56:27;;;;;;;1.33;1.23;;;14.60;99.90;;;;;;4422905;32;20069;-65
2023/01/01 05:58:54;;;;;;;3.62;1.48;;;14.60;99.90;;;;;;4423178;32;20069;-65
2023/01/01 06:01:22;;;;;;;0.60;0.60;;;14.60;99.90;;;;;;4424688;32;20090;-66
2023/01/01 06:03:48;;;;;;;0.82;0.82;;;14.60;99.90;;;;;;4422418;32;20781;-65
2023/01/01 06:06:17;;;;;;;2.70;1.73;;;14.60;99.90;;;;;;4409474;32;20143;-65
2023/01/01 06:08:49;;;;;;;0.50;0.50;;;14.70;99.90;;;;;;4424678;32;20139;-67
2023/01/01 06:11:15;;;;;;;4.37;1.33;;;14.70;99.90;;;;;;4397313;32;20088;-66
2023/01/01 06:13:40;;;;;;;0.52;0.52;;;14.60;99.90;;;;;;4409637;32;20176;-65
2023/01/01 06:16:06;;;;;;;0.50;0.50;;;14.60;99.90;;;;;;4419100;32;20082;-67
2023/01/01 06:18:34;;;;;;;0.68;0.62;;;14.70;99.90;;;;;;4421649;32;20109;-67
2023/01/01 06:21:12;;;;;;;0.40;0.40;;;14.60;99.90;;;;;;4422767;32;20089;-65
2023/01/01 06:23:38;;;;;;;2.80;1.80;;;14.60;99.90;;;;;;4407993;32;20462;-67
2023/01/01 06:26:06;;;;;;;0.90;0.88;;;14.70;99.90;;;;;;4425161;32;20074;-66
2023/01/01 06:28:31;;;;;;;0.88;0.85;;;14.70;99.90;;;;;;4421574;32;20101;-65
2023/01/01 06:31:01;;;;;;;0.85;0.85;;;14.70;99.90;;;;;;4422750;32;20126;-66
2023/01/01 06:33:28;;;;;;;0.47;0.47;;;14.70;99.90;;;;;;4405628;32;20102;-66
2023/01/01 06:35:53;;;;;;;0.50;0.50;;;14.70;99.90;;;;;;4400529;32;20561;-66
2023/01/01 06:38:19;;;;;;;0.50;0.50;;;14.70;99.90;;;;;;4422678;32;20066;-65
2023/01/01 06:40:55;;;;;;;6.03;0.80;;;14.70;99.90;;;;;;4415198;32;20541;-65
2023/01/01 06:43:20;;;;;;;1.12;0.80;;;14.70;99.90;;;;;;4409471;32;20415;-65
2023/01/01 06:45:46;;;;;;;4.28;1.85;;;14.70;99.90;;;;;;4416766;32;20086;-65
2023/01/01 06:48:11;;;;;;;0.57;0.57;;;14.70;99.90;;;;;;4420186;32;20101;-66
2023/01/01 06:50:37;;;;;;;2.45;1.20;;;14.70;99.90;;;;;;4423865;32;20092;-66
2023/01/01 06:53:02;;;;;;;1.08;0.65;;;14.60;99.90;;;;;;4422892;32;20085;-66
2023/01/01 06:55:28;;;;;;;0.52;0.52;;;14.60;99.90;;;;;;4422888;32;20157;-66
2023/01/01 06:57:53;;;;;;;0.50;0.50;;;14.60;99.90;;;;;;4420736;32;20089;-66
2023/01/01 07:00:18;;;;;;;0.55;0.55;;;14.60;99.90;;;;;;4420871;32;20139;-66
2023/01/01 07:02:47;;;;;;;0.75;0.75;;;14.60;99.90;;;;;;4422562;32;20523;-65
2023/01/01 07:05:12;;;;;;;0.90;0.70;;;14.60;99.90;;;;;;4423481;32;20061;-65
2023/01/01 07:07:38;;;;;;;0.40;0.40;;;14.60;99.90;;;;;;4421956;32;21545;-66
2023/01/01 07:10:04;;;;;;;0.45;0.45;;;14.60;99.90;;;;;;4419510;32;20136;-65
2023/01/01 07:12:30;;;;;;;0.50;0.50;;;14.60;99.90;;;;;;4407122;32;20556;-65
2023/01/01 07:14:55;;;;;;;4.18;1.30;;;14.60;99.90;;;;;;4412898;32;20582;-65
2023/01/01 07:17:20;;;;;;;0.60;0.50;;;14.60;99.90;;;;;;4420831;32;20062;-66
2023/01/01 07:19:46;;;;;;;0.70;0.70;;;14.60;99.90;;;;;;4418900;32;20068;-67
2023/01/01 07:22:11;;;;;;;1.12;0.82;;;14.60;99.90;;;;;;4421676;32;20558;-67
2023/01/01 07:24:38;;;;;;;0.50;0.50;;;14.60;99.90;;;;;;4412222;32;20077;-67
2023/01/01 07:27:03;;;;;;;0.88;0.88;;;14.70;99.90;;;;;;4420373;32;20078;-66
2023/01/01 07:29:29;;;;;;;0.90;0.50;;;14.60;99.90;;;;;;4424115;32;20097;-66
2023/01/01 07:31:54;;;;;;;1.15;0.93;;;14.60;99.90;;;;;;4420433;32;91731;-67
2023/01/01 07:34:21;;;;;;;0.70;0.70;;;14.70;99.90;;;;;;4422338;32;20078;-67
2023/01/01 07:36:47;;;;;;;1.48;0.88;;;14.70;99.90;;;;;;4422405;32;20485;-66
2023/01/01 07:39:12;;;;;;;0.40;0.40;;;14.70;99.90;;;;;;4422764;32;20127;-65
2023/01/01 07:41:39;;;;;;;0.50;0.50;;;14.60;99.90;;;;;;4408476;32;20541;-64
2023/01/01 07:44:04;;;;;;;0.50;0.50;;;14.70;99.90;;;;;;4409712;32;20069;-65
2023/01/01 07:46:32;;;;;;;0.55;0.55;;;14.70;99.90;;;;;;4421227;32;20093;-65
2023/01/01 07:48:57;;;;;;;0.65;0.57;;;14.80;99.90;;;;;;4420722;32;20706;-66
2023/01/01 07:51:23;;;;;;;0.68;0.68;;;14.70;99.90;;;;;;4422086;32;20061;-65
2023/01/01 07:53:48;;;;;;;0.60;0.60;;;14.70;99.90;;;;;;4421500;32;20465;-67
2023/01/01 07:56:14;;;;;;;1.35;1.23;;;14.70;99.90;;;;;;4424023;32;20098;-67
2023/01/01 07:58:40;;;;;;;0.90;0.88;;;14.80;99.90;;;;;;4421648;32;20120;-66
2023/01/01 08:01:10;;;;;;;0.75;0.70;;;14.80;99.90;;;;;;4409876;32;20081;-67
2023/01/01 08:03:35;;;;;;;0.50;0.50;;;14.80;99.90;;;;;;4421103;32;20093;-66
2023/01/01 08:06:06;;;;;;;1.75;1.30;;;14.70;99.90;;;;;;4421682;32;20102;-67
2023/01/01 08:08:31;;;;;;;;;;;14.70;99.90;;;;;;4421390;32;20074;-67
2023/01/01 08:11:01;;;;;;;2.92;1.70;;;14.70;99.90;;;;;;4413054;32;19961;-66
2023/01/01 08:13:26;;;;;;;0.98;0.98;;;14.80;99.90;;;;;;4407860;32;20097;-65
2023/01/01 08:15:52;;;;;;;0.50;0.50;;;14.80;99.90;;;;;;4415908;32;20066;-66
2023/01/01 08:18:17;;;;;;;0.57;0.47;;;14.90;99.90;;;;;;4421327;32;20081;-67
2023/01/01 08:20:42;;;;;;;0.40;0.40;;;14.90;99.90;;;;;;4423066;32;20081;-66
2023/01/01 08:23:08;;;;;;;0.80;0.80;;;14.90;99.90;;;;;;4421253;32;20798;-67
2023/01/01 08:25:34;;;;;;;6.80;2.30;;;14.90;99.90;;;;;;4422384;32;20050;-67
2023/01/01 08:27:59;;;;;;;2.17;1.00;;;14.90;99.90;;;;;;4419988;32;20081;-67
2023/01/01 08:30:24;;;;;;;0.80;0.80;;;14.90;99.90;;;;;;4421131;32;20548;-65
2023/01/01 08:32:50;;;;;;;0.60;0.60;;;14.90;99.90;;;;;;4422384;32;20058;-65
2023/01/01 08:35:15;;;;;;;0.40;0.40;;;14.90;99.90;;;;;;4423075;32;20066;-67
2023/01/01 08:37:41;;;;;;;0.60;0.60;;;14.90;99.90;;;;;;4424286;32;20074;-65
2023/01/01 08:40:09;;;;;;;0.60;0.60;;;14.90;99.90;;;;;;4420421;32;20175;-65
2023/01/01 08:42:35;;;;;;;0.40;0.40;;;14.90;99.90;;;;;;4395967;32;20081;-65
2023/01/01 08:45:00;;;;;;;1.23;0.60;;;14.90;99.90;;;;;;4415573;32;20116;-65
2023/01/01 08:47:26;;;;;;;0.57;0.57;;;14.90;99.90;;;;;;4424032;32;20164;-65
2023/01/01 08:49:52;;;;;;;0.50;0.50;;;15.00;99.90;;;;;;4424489;32;20118;-65
2023/01/01 08:52:18;;;;;;;2.17;1.25;;;14.90;99.90;;;;;;4425785;32;20124;-64
2023/01/01 08:54:44;;;;;;;33.28;1.65;;;14.90;99.90;;;;;;4412296;32;20097;-65
2023/01/01 08:57:10;;;;;;;0.50;0.50;;;15.00;99.90;;;;;;4426707;32;20073;-65
2023/01/01 08:59:36;;;;;;;1.08;0.85;;;15.00;99.90;;;;;;4426554;32;20526;-65
2023/01/01 09:02:01;;;;;;;0.70;0.70;;;15.00;99.90;;;;;;4423809;32;20057;-66
2023/01/01 09:04:27;;;;;;;0.93;0.93;;;14.90;99.90;;;;;;4424371;32;20529;-66
2023/01/01 09:06:52;;;;;;;0.75;0.75;;;14.90;99.90;;;;;;4425147;32;20203;-66
2023/01/01 09:09:18;;;;;;;1.00;0.90;;;14.90;99.90;;;;;;4424332;32;20375;-65
2023/01/01 09:11:52;;;;;;;0.70;0.70;;;15.00;99.90;;;;;;4408066;32;20085;-65
2023/01/01 09:14:19;;;;;;;0.50;0.50;;;15.00;99.90;;;;;;4411517;32;21294;-65
2023/01/01 09:16:44;;;;;;;0.32;0.32;;;15.00;99.90;;;;;;4409021;32;20191;-66
2023/01/01 09:19:10;;;;;;;1.25;1.15;;;15.00;99.90;;;;;;4422234;32;20121;-66
2023/01/01 09:21:35;;;;;;;2.17;0.77;;;15.00;99.90;;;;;;4423797;32;20114;-66
2023/01/01 09:24:00;;;;;;;0.50;0.50;;;15.00;99.90;;;;;;4423823;32;20140;-66
2023/01/01 09:26:26;;;;;;;0.50;0.50;;;15.00;99.90;;;;;;4423854;32;20553;-65
2023/01/01 09:28:51;;;;;;;0.40;0.40;;;15.00;99.90;;;;;;4423141;32;20158;-65
2023/01/01 09:31:17;;;;;;;1.20;1.10;;;15.00;99.90;;;;;;4425693;32;20062;-66
2023/01/01 09:33:42;;;;;;;1.62;1.00;;;15.10;99.90;;;;;;4424012;32;20112;-66
2023/01/01 09:36:27;;;;;;;2.30;0.88;;;15.00;99.90;;;;;;4410750;32;20569;-65
2023/01/01 09:38:53;;;;;;;1.10;0.80;;;15.10;99.90;;;;;;4414741;32;20577;-66
2023/01/01 09:41:43;;;;;;;1.02;0.95;;;15.10;99.90;;;;;;4414273;32;20152;-65
2023/01/01 09:44:40;;;;;;;0.68;0.68;;;15.10;99.90;;;;;;4396496;32;20132;-65
2023/01/01 09:47:19;;;;;;;0.40;0.40;;;15.10;99.90;;;;;;4411927;32;20127;-65
2023/01/01 09:49:46;;;;;;;1.40;1.10;;;15.10;99.90;;;;;;4422624;32;20085;-66
2023/01/01 09:52:15;;;;;;;0.35;0.35;;;15.20;99.90;;;;;;4423339;32;20057;-65
2023/01/01 09:54:50;;;;;;;0.40;0.40;;;15.20;99.90;;;;;;4422570;32;20097;-66
2023/01/01 09:57:16;;;;;;;1.45;0.90;;;15.20;99.90;;;;;;4407949;32;20093;-66
2023/01/01 09:59:42;;;;;;;0.40;0.40;;;15.30;99.90;;;;;;4422609;32;20100;-65
2023/01/01 10:02:35;;;;;;;0.95;0.95;;;15.30;99.90;;;;;;4423018;32;20077;-65
2023/01/01 10:05:18;;;;;;;2.67;0.70;;;15.30;99.90;;;;;;4412340;32;20144;-66
2023/01/01 10:08:08;;;;;;;1.12;1.00;;;15.40;99.90;;;;;;4423485;32;20096;-66
2023/01/01 10:10:39;;;;;;;0.82;0.82;;;15.40;99.90;;;;;;4417944;32;20097;-65
2023/01/01 10:13:11;;;;;;;0.40;0.40;;;15.50;99.90;;;;;;4407494;32;20121;-65
2023/01/01 10:15:42;;;;;;;4.12;1.95;;;15.50;99.90;;;;;;4418385;32;20105;-65
2023/01/01 10:18:28;;;;;;;0.50;0.50;;;15.50;99.90;;;;;;4423752;32;20081;-66
2023/01/01 10:21:15;;;;;;;0.85;0.85;;;15.50;99.90;;;;;;4423081;32;20086;-65
2023/01/01 10:23:47;;;;;;;0.73;0.73;;;15.50;99.90;;;;;;4423621;32;20443;-65
2023/01/01 10:26:17;;;;;;;0.60;0.60;;;15.50;99.90;;;;;;4423710;32;20445;-67
2023/01/01 10:29:07;;;;;;;0.50;0.50;;;15.50;99.90;;;;;;4408829;32;20064;-65
2023/01/01 10:31:37;;;;;;;0.50;0.50;;;15.60;99.90;;;;;;4408897;32;20112;-65
2023/01/01 10:34:16;;;;;;;1.00;0.68;;;15.50;99.90;;;;;;4406499;32;20089;-67
2023/01/01 10:36:43;;;;;;;0.50;0.50;;;15.60;99.90;;;;;;4406973;32;20439;-67
2023/01/01 10:39:15;;;;;;;0.75;0.50;;;15.60;99.90;;;;;;4421004;32;20088;-67
2023/01/01 10:41:41;;;;;;;1.58;1.23;;;15.60;99.90;;;;;;4409052;32;20102;-64
2023/01/01 10:44:07;;;;;;;2.62;0.80;;;15.60;99.90;;;;;;4411040;32;20567;-67
2023/01/01 10:46:35;;;;;;;0.62;0.62;;;15.60;99.90;;;;;;4422139;32;20084;-66
2023/01/01 10:49:05;;;;;;;0.60;0.60;;;15.50;99.90;;;;;;4419996;32;20097;-66
2023/01/01 10:51:31;;;;;;;15.70;0.70;;;15.50;99.90;;;;;;4406493;32;20114;-66
2023/01/01 10:53:57;;;;;;;0.40;0.40;;;15.50;99.90;;;;;;4421584;32;20081;-66
2023/01/01 10:56:23;;;;;;;0.55;0.55;;;15.50;99.90;;;;;;4420661;32;20081;-66
2023/01/01 10:58:53;;;;;;;0.60;0.60;;;15.60;99.90;;;;;;4420926;32;20097;-66
2023/01/01 11:01:22;;;;;;;0.50;0.50;;;15.60;99.90;;;;;;4421956;32;20161;-66
2023/01/01 11:04:18;;;;;;;0.50;0.50;;;15.70;99.90;;;;;;4424416;32;20069;-66
2023/01/01 11:06:46;;;;;;;0.52;0.52;;;15.60;99.90;;;;;;4423889;32;20670;-66
2023/01/01 11:09:22;;;;;;;0.50;0.50;;;15.60;99.90;;;;;;4421464;32;20128;-66
2023/01/01 11:11:58;;;;;;;0.40;0.40;;;15.60;99.90;;;;;;4407924;32;20144;-66
2023/01/01 11:14:30;;;;;;;0.52;0.52;;;15.70;99.90;;;;;;4398244;32;20078;-66
2023/01/01 11:16:56;;;;;;;0.30;0.30;;;15.70;99.90;;;;;;4422790;32;20082;-66
2023/01/01 11:19:33;;;;;;;1.83;1.00;;;15.70;99.90;;;;;;4420669;32;20182;-66
2023/01/01 11:21:59;;;;;;;1.73;0.55;;;15.70;99.90;;;;;;4421813;32;20203;-66
2023/01/01 11:24:28;;;;;;;0.70;0.70;;;15.70;99.90;;;;;;4421391;32;20077;-66
2023/01/01 11:27:16;;;;;;;0.55;0.55;;;15.80;99.90;;;;;;4420330;32;20767;-66
2023/01/01 11:29:42;;;;;;;0.45;0.45;;;15.80;99.90;;;;;;4423818;32;20061;-66
2023/01/01 11:32:08;;;;;;;0.60;0.60;;;15.80;99.90;;;;;;4420749;32;20553;-66
2023/01/01 11:34:39;;;;;;;0.73;0.73;;;15.80;99.90;;;;;;4423609;32;20065;-65
2023/01/01 11:37:14;;;;;;;0.60;0.60;;;15.80;99.90;;;;;;4421154;32;20097;-66
2023/01/01 11:39:43;;;;;;;0.70;0.70;;;15.80;99.90;;;;;;4420553;32;20069;-65
2023/01/01 11:42:18;;;;;;;1.35;1.25;;;15.90;99.90;;;;;;4406581;32;20446;-65
2023/01/01 11:44:48;;;;;;;0.50;0.50;;;15.90;99.90;;;;;;4413077;32;20077;-66
2023/01/01 11:47:35;;;;;;;2.90;0.50;;;15.90;99.90;;;;;;4422293;32;20593;-66
2023/01/01 11:50:07;;;;;;;0.50;0.50;;;15.90;99.90;;;;;;4419941;32;20106;-66
2023/01/01 11:52:38;;;;;;;0.50;0.50;;;15.90;99.90;;;;;;4407073;32;20066;-66
2023/01/01 11:55:15;;;;;;;1.02;1.02;;;15.90;99.90;;;;;;4420936;32;20073;-66
2023/01/01 11:57:48;;;;;;;0.73;0.70;;;15.90;99.90;;;;;;4405323;32;20172;-66
2023/01/01 12:00:15;;;;;;;0.45;0.40;;;15.90;99.90;;;;;;4420356;32;20451;-67
2023/01/01 12:03:10;;;;;;;8.57;1.60;;;15.90;99.90;;;;;;4420883;32;20072;-66
2023/01/01 12:05:45;;;;;;;7.82;1.27;;;15.90;99.90;;;;;;4410891;32;20427;-66
2023/01/01 12:08:20;;;;;;;0.40;0.40;;;15.90;99.90;;;;;;4420096;32;20526;-66
2023/01/01 12:10:52;;;;;;;0.60;0.60;;;15.90;99.90;;;;;;4413627;32;20571;-65
2023/01/01 12:13:24;;;;;;;0.70;0.70;;;15.90;99.90;;;;;;4408163;32;20525;-66
2023/01/01 12:15:59;;;;;;;1.55;1.10;;;15.90;99.90;;;;;;4402421;32;20070;-66
2023/01/01 12:18:34;;;;;;;0.50;0.50;;;15.90;99.90;;;;;;4422996;32;20128;-67
2023/01/01 12:21:07;;;;;;;1.08;0.90;;;15.90;99.90;;;;;;4423407;32;20594;-66
2023/01/01 12:23:34;;;;;;;0.40;0.40;;;15.90;99.90;;;;;;4421079;32;20076;-66
2023/01/01 12:26:23;;;;;;;0.60;0.60;;;15.90;99.90;;;;;;4398056;32;20137;-66
2023/01/01 12:29:21;;;;;;;0.50;0.50;;;15.90;99.90;;;;;;4406004;32;20084;-66
2023/01/01 12:31:56;;;;;;;0.50;0.50;;;15.90;99.90;;;;;;4409631;32;20126;-66
2023/01/01 12:34:33;;;;;;;0.40;0.40;;;15.90;99.90;;;;;;4421317;32;20069;-66
2023/01/01 12:37:39;;;;;;;0.40;0.40;;;15.90;99.90;;;;;;4420913;32;20431;-66
2023/01/01 12:40:25;;;;;;;0.70;0.70;;;15.90;99.90;;;;;;4402465;32;20180;-65
2023/01/01 12:43:03;;;;;;;1.15;0.50;;;15.90;99.90;;;;;;4392859;32;20490;-66
2023/01/01 12:45:40;;;;;;;2.25;1.30;;;15.90;99.90;;;;;;4413631;32;20058;-66
2023/01/01 12:48:27;;;;;;;1.83;1.40;;;15.80;99.90;;;;;;4420152;32;20548;-66
2023/01/01 12:51:00;;;;;;;0.60;0.60;;;15.80;99.90;;;;;;4421231;32;20073;-66
2023/01/01 12:53:38;;;;;;;0.60;0.60;;;15.80;99.90;;;;;;4421592;32;20157;-66
2023/01/01 12:56:12;;;;;;;0.55;0.55;;;15.80;99.90;;;;;;4419698;32;20135;-66
2023/01/01 12:58:43;;;;;;;0.80;0.55;;;15.80;99.90;;;;;;4421227;32;20101;-66
2023/01/01 13:01:13;;;;;;;0.50;0.50;;;15.80;99.90;;;;;;4419033;32;20559;-65
2023/01/01 13:03:47;;;;;;;0.68;0.65;;;15.70;99.90;;;;;;4422313;32;20824;-66